sensor_id;sensor_type;location;lat;lon;timestamp;temperature;humidity
22974;DHT22;11653;50.848;4.584;2023-03-01T00:00:46;0.60;99.90
22974;DHT22;11653;50.848;4.584;2023-03-01T00:03:12;0.60;99.90
22974;DHT22;11653;50.848;4.584;2023-03-01T00:05:47;0.60;99.90
22974;DHT22;11653;50.848;4.584;2023-03-01T00:08:12;0.50;99.90
22974;DHT22;11653;50.848;4.584;2023-03-01T00:10:38;0.50;99.90
22974;DHT22;11653;50.848;4.584;2023-03-01T00:13:04;0.40;99.90
22974;DHT22;11653;50.848;4.584;2023-03-01T00:15:31;0.40;99.90
22974;DHT22;11653;50.848;4.584;2023-03-01T00:17:57;0.40;99.90
22974;DHT22;11653;50.848;4.584;2023-03-01T00:20:23;0.40;99.90
22974;DHT22;11653;50.848;4.584;2023-03-01T00:22:48;0.40;99.90
22974;DHT22;11653;50.848;4.584;2023-03-01T00:25:14;0.40;99.90
22974;DHT22;11653;50.848;4.584;2023-03-01T00:27:40;0.50;99.90
22974;DHT22;11653;50.848;4.584;2023-03-01T00:30:06;0.40;99.90
22974;DHT22;11653;50.848;4.584;2023-03-01T00:32:32;0.30;99.90
22974;DHT22;11653;50.848;4.584;2023-03-01T00:34:57;0.20;99.90
22974;DHT22;11653;50.848;4.584;2023-03-01T00:37:23;0.20;99.90
22974;DHT22;11653;50.848;4.584;2023-03-01T00:39:49;0.20;99.90
22974;DHT22;11653;50.848;4.584;2023-03-01T00:42:15;0.20;99.90
22974;DHT22;11653;50.848;4.584;2023-03-01T00:44:41;0.20;99.90
22974;DHT22;11653;50.848;4.584;2023-03-01T00:47:07;0.10;99.90
22974;DHT22;11653;50.848;4.584;2023-03-01T00:49:34;0.10;99.90
22974;DHT22;11653;50.848;4.584;2023-03-01T00:51:59;0.10;99.90
22974;DHT22;11653;50.848;4.584;2023-03-01T00:54:25;0.10;99.90
22974;DHT22;11653;50.848;4.584;2023-03-01T00:56:51;0.10;99.90
22974;DHT22;11653;50.848;4.584;2023-03-01T00:59:16;0.10;99.90
22974;DHT22;11653;50.848;4.584;2023-03-01T01:01:42;0.10;99.90
22974;DHT22;11653;50.848;4.584;2023-03-01T01:04:11;0.00;99.90
22974;DHT22;11653;50.848;4.584;2023-03-01T01:06:40;0.00;99.90
22974;DHT22;11653;50.848;4.584;2023-03-01T01:09:08;0.10;99.90
22974;DHT22;11653;50.848;4.584;2023-03-01T01:11:35;0.10;99.90
22974;DHT22;11653;50.848;4.584;2023-03-01T01:14:04;0.10;99.90
22974;DHT22;11653;50.848;4.584;2023-03-01T01:16:30;0.10;99.90
22974;DHT22;11653;50.848;4.584;2023-03-01T01:18:56;0.10;99.90
22974;DHT22;11653;50.848;4.584;2023-03-01T01:21:23;0.20;99.90
22974;DHT22;11653;50.848;4.584;2023-03-01T01:23:50;0.30;99.90
22974;DHT22;11653;50.848;4.584;2023-03-01T01:26:21;0.30;99.90
22974;DHT22;11653;50.848;4.584;2023-03-01T01:28:47;0.40;99.90
22974;DHT22;11653;50.848;4.584;2023-03-01T01:31:14;0.40;99.90
22974;DHT22;11653;50.848;4.584;2023-03-01T01:33:39;0.40;99.90
22974;DHT22;11653;50.848;4.584;2023-03-01T01:36:06;0.40;99.90
22974;DHT22;11653;50.848;4.584;2023-03-01T01:38:32;0.40;99.90
22974;DHT22;11653;50.848;4.584;2023-03-01T01:40:58;0.40;99.90
22974;DHT22;11653;50.848;4.584;2023-03-01T01:43:27;0.50;99.90
22974;DHT22;11653;50.848;4.584;2023-03-01T01:48:44;0.30;99.90
22974;DHT22;11653;50.848;4.584;2023-03-01T01:51:19;0.20;99.90
22974;DHT22;11653;50.848;4.584;2023-03-01T01:53:49;0.20;99.90
22974;DHT22;11653;50.848;4.584;2023-03-01T01:56:18;0.10;99.90
22974;DHT22;11653;50.848;4.584;2023-03-01T01:58:45;0.10;99.90
22974;DHT22;11653;50.848;4.584;2023-03-01T02:01:13;0.10;99.90
22974;DHT22;11653;50.848;4.584;2023-03-01T02:03:39;0.10;99.90
22974;DHT22;11653;50.848;4.584;2023-03-01T02:08:47;0.00;99.90
22974;DHT22;11653;50.848;4.584;2023-03-01T02:11:14;0.00;99.90
22974;DHT22;11653;50.848;4.584;2023-03-01T02:13:41;-0.10;99.90
22974;DHT22;11653;50.848;4.584;2023-03-01T02:16:12;-0.10;99.90
22974;DHT22;11653;50.848;4.584;2023-03-01T02:18:40;-0.10;99.90
22974;DHT22;11653;50.848;4.584;2023-03-01T02:23:53;-0.20;99.90
22974;DHT22;11653;50.848;4.584;2023-03-01T02:29:18;-0.30;99.90
22974;DHT22;11653;50.848;4.584;2023-03-01T02:31:44;-0.30;99.90
22974;DHT22;11653;50.848;4.584;2023-03-01T02:34:17;-0.30;99.90
22974;DHT22;11653;50.848;4.584;2023-03-01T02:36:56;-0.30;99.90
22974;DHT22;11653;50.848;4.584;2023-03-01T02:39:44;-0.40;99.90
22974;DHT22;11653;50.848;4.584;2023-03-01T02:42:14;-0.40;99.90
22974;DHT22;11653;50.848;4.584;2023-03-01T02:44:42;-0.40;99.90
22974;DHT22;11653;50.848;4.584;2023-03-01T02:47:08;-0.50;99.90
22974;DHT22;11653;50.848;4.584;2023-03-01T02:49:36;-0.50;99.90
22974;DHT22;11653;50.848;4.584;2023-03-01T02:52:34;-0.50;99.90
22974;DHT22;11653;50.848;4.584;2023-03-01T02:55:09;-0.50;99.90
22974;DHT22;11653;50.848;4.584;2023-03-01T02:57:38;-0.60;99.90
22974;DHT22;11653;50.848;4.584;2023-03-01T03:00:12;-0.60;99.90
22974;DHT22;11653;50.848;4.584;2023-03-01T03:02:47;-0.60;99.90
22974;DHT22;11653;50.848;4.584;2023-03-01T03:05:19;-0.60;99.90
22974;DHT22;11653;50.848;4.584;2023-03-01T03:07:47;-0.60;99.90
22974;DHT22;11653;50.848;4.584;2023-03-01T03:10:17;-0.60;99.90
22974;DHT22;11653;50.848;4.584;2023-03-01T03:12:49;-0.60;99.90
22974;DHT22;11653;50.848;4.584;2023-03-01T03:15:16;-0.60;99.90
22974;DHT22;11653;50.848;4.584;2023-03-01T03:17:42;-0.60;99.90
22974;DHT22;11653;50.848;4.584;2023-03-01T03:20:09;-0.60;99.90
22974;DHT22;11653;50.848;4.584;2023-03-01T03:22:40;-0.60;99.90
22974;DHT22;11653;50.848;4.584;2023-03-01T03:25:07;-0.70;99.90
22974;DHT22;11653;50.848;4.584;2023-03-01T03:27:37;-0.60;99.90
22974;DHT22;11653;50.848;4.584;2023-03-01T03:30:05;-0.50;99.90
22974;DHT22;11653;50.848;4.584;2023-03-01T03:32:36;-0.50;99.90
22974;DHT22;11653;50.848;4.584;2023-03-01T03:35:05;-0.50;99.90
22974;DHT22;11653;50.848;4.584;2023-03-01T03:37:38;-0.50;99.90
22974;DHT22;11653;50.848;4.584;2023-03-01T03:40:23;-0.60;99.90
22974;DHT22;11653;50.848;4.584;2023-03-01T03:42:49;-0.70;99.90
22974;DHT22;11653;50.848;4.584;2023-03-01T03:45:16;-0.60;99.90
22974;DHT22;11653;50.848;4.584;2023-03-01T03:47:42;-0.60;99.90
22974;DHT22;11653;50.848;4.584;2023-03-01T03:50:12;-0.50;99.90
22974;DHT22;11653;50.848;4.584;2023-03-01T03:52:37;-0.50;99.90
22974;DHT22;11653;50.848;4.584;2023-03-01T03:55:04;-0.60;99.90
22974;DHT22;11653;50.848;4.584;2023-03-01T03:57:38;-0.60;99.90
22974;DHT22;11653;50.848;4.584;2023-03-01T04:00:05;-0.60;99.90
22974;DHT22;11653;50.848;4.584;2023-03-01T04:02:41;-0.60;99.90
22974;DHT22;11653;50.848;4.584;2023-03-01T04:05:08;-0.60;99.90
22974;DHT22;11653;50.848;4.584;2023-03-01T04:07:38;-0.60;99.90
22974;DHT22;11653;50.848;4.584;2023-03-01T04:10:05;-0.60;99.90
22974;DHT22;11653;50.848;4.584;2023-03-01T04:12:32;-0.60;99.90
22974;DHT22;11653;50.848;4.584;2023-03-01T04:15:03;-0.60;99.90
22974;DHT22;11653;50.848;4.584;2023-03-01T04:17:45;-0.60;99.90
22974;DHT22;11653;50.848;4.584;2023-03-01T04:20:14;-0.70;99.90
22974;DHT22;11653;50.848;4.584;2023-03-01T04:22:43;-0.60;99.90
22974;DHT22;11653;50.848;4.584;2023-03-01T04:25:12;-0.60;99.90
22974;DHT22;11653;50.848;4.584;2023-03-01T04:27:40;-0.60;99.90
22974;DHT22;11653;50.848;4.584;2023-03-01T04:30:07;-0.70;99.90
22974;DHT22;11653;50.848;4.584;2023-03-01T04:32:33;-0.70;99.90
22974;DHT22;11653;50.848;4.584;2023-03-01T04:34:59;-0.70;99.90
22974;DHT22;11653;50.848;4.584;2023-03-01T04:37:25;-0.80;99.90
22974;DHT22;11653;50.848;4.584;2023-03-01T04:39:51;-0.80;99.90
22974;DHT22;11653;50.848;4.584;2023-03-01T04:42:17;-0.80;99.90
22974;DHT22;11653;50.848;4.584;2023-03-01T04:44:44;-0.90;99.90
22974;DHT22;11653;50.848;4.584;2023-03-01T04:47:10;-0.90;99.90
22974;DHT22;11653;50.848;4.584;2023-03-01T04:49:36;-0.90;99.90
22974;DHT22;11653;50.848;4.584;2023-03-01T04:52:02;-0.80;99.90
22974;DHT22;11653;50.848;4.584;2023-03-01T04:54:28;-0.80;99.90
22974;DHT22;11653;50.848;4.584;2023-03-01T04:56:57;-0.80;99.90
22974;DHT22;11653;50.848;4.584;2023-03-01T04:59:23;-0.80;99.90
22974;DHT22;11653;50.848;4.584;2023-03-01T05:01:50;-0.80;99.90
22974;DHT22;11653;50.848;4.584;2023-03-01T05:04:16;-0.70;99.90
22974;DHT22;11653;50.848;4.584;2023-03-01T05:06:42;-0.60;99.90
22974;DHT22;11653;50.848;4.584;2023-03-01T05:09:08;-0.60;99.90
22974;DHT22;11653;50.848;4.584;2023-03-01T05:11:33;-0.60;99.90
22974;DHT22;11653;50.848;4.584;2023-03-01T05:14:05;-0.60;99.90
22974;DHT22;11653;50.848;4.584;2023-03-01T05:16:32;-0.60;99.90
22974;DHT22;11653;50.848;4.584;2023-03-01T05:18:58;-0.60;99.90
22974;DHT22;11653;50.848;4.584;2023-03-01T05:21:24;-0.60;99.90
22974;DHT22;11653;50.848;4.584;2023-03-01T05:23:50;-0.60;99.90
22974;DHT22;11653;50.848;4.584;2023-03-01T05:26:18;-0.60;99.90
22974;DHT22;11653;50.848;4.584;2023-03-01T05:28:44;-0.60;99.90
22974;DHT22;11653;50.848;4.584;2023-03-01T05:31:10;-0.60;99.90
22974;DHT22;11653;50.848;4.584;2023-03-01T05:33:37;-0.60;99.90
22974;DHT22;11653;50.848;4.584;2023-03-01T05:36:04;-0.60;99.90
22974;DHT22;11653;50.848;4.584;2023-03-01T05:38:29;-0.70;99.90
22974;DHT22;11653;50.848;4.584;2023-03-01T05:40:55;-0.70;99.90
22974;DHT22;11653;50.848;4.584;2023-03-01T05:43:21;-0.70;99.90
22974;DHT22;11653;50.848;4.584;2023-03-01T05:45:46;-0.60;99.90
22974;DHT22;11653;50.848;4.584;2023-03-01T05:48:12;-0.50;99.90
22974;DHT22;11653;50.848;4.584;2023-03-01T05:50:41;-0.50;99.90
22974;DHT22;11653;50.848;4.584;2023-03-01T05:53:16;-0.50;99.90
22974;DHT22;11653;50.848;4.584;2023-03-01T05:55:43;-0.50;99.90
22974;DHT22;11653;50.848;4.584;2023-03-01T05:58:11;-0.50;99.90
22974;DHT22;11653;50.848;4.584;2023-03-01T06:00:39;-0.50;99.90
22974;DHT22;11653;50.848;4.584;2023-03-01T06:03:05;-0.40;99.90
22974;DHT22;11653;50.848;4.584;2023-03-01T06:05:31;-0.40;99.90
22974;DHT22;11653;50.848;4.584;2023-03-01T06:07:59;-0.40;99.90
22974;DHT22;11653;50.848;4.584;2023-03-01T06:10:25;-0.50;99.90
22974;DHT22;11653;50.848;4.584;2023-03-01T06:12:51;-0.50;99.90
22974;DHT22;11653;50.848;4.584;2023-03-01T06:15:16;-0.60;99.90
22974;DHT22;11653;50.848;4.584;2023-03-01T06:17:44;-0.50;99.90
22974;DHT22;11653;50.848;4.584;2023-03-01T06:20:16;-0.60;99.90
22974;DHT22;11653;50.848;4.584;2023-03-01T06:22:43;-0.60;99.90
22974;DHT22;11653;50.848;4.584;2023-03-01T06:25:10;-0.70;99.90
22974;DHT22;11653;50.848;4.584;2023-03-01T06:27:36;-0.80;99.90
22974;DHT22;11653;50.848;4.584;2023-03-01T06:30:03;-0.80;99.90
22974;DHT22;11653;50.848;4.584;2023-03-01T06:32:28;-0.70;99.90
22974;DHT22;11653;50.848;4.584;2023-03-01T06:34:55;-0.80;99.90
22974;DHT22;11653;50.848;4.584;2023-03-01T06:37:21;-0.80;99.90
22974;DHT22;11653;50.848;4.584;2023-03-01T06:39:46;-0.90;99.90
22974;DHT22;11653;50.848;4.584;2023-03-01T06:42:12;-0.90;99.90
22974;DHT22;11653;50.848;4.584;2023-03-01T06:44:38;-0.80;99.90
22974;DHT22;11653;50.848;4.584;2023-03-01T06:47:04;-1.00;99.90
22974;DHT22;11653;50.848;4.584;2023-03-01T06:49:30;-0.90;99.90
22974;DHT22;11653;50.848;4.584;2023-03-01T06:51:56;-0.90;99.90
22974;DHT22;11653;50.848;4.584;2023-03-01T06:54:22;-0.90;99.90
22974;DHT22;11653;50.848;4.584;2023-03-01T06:56:48;-0.70;99.90
22974;DHT22;11653;50.848;4.584;2023-03-01T06:59:14;-0.40;99.90
22974;DHT22;11653;50.848;4.584;2023-03-01T07:01:40;-0.10;99.90
22974;DHT22;11653;50.848;4.584;2023-03-01T07:04:06;0.10;99.90
22974;DHT22;11653;50.848;4.584;2023-03-01T07:06:31;0.40;99.90
22974;DHT22;11653;50.848;4.584;2023-03-01T07:08:57;0.60;99.90
22974;DHT22;11653;50.848;4.584;2023-03-01T07:11:23;0.90;99.90
22974;DHT22;11653;50.848;4.584;2023-03-01T07:13:48;1.20;99.90
22974;DHT22;11653;50.848;4.584;2023-03-01T07:16:14;1.60;99.90
22974;DHT22;11653;50.848;4.584;2023-03-01T07:18:40;1.90;99.90
22974;DHT22;11653;50.848;4.584;2023-03-01T07:21:07;2.30;99.90
22974;DHT22;11653;50.848;4.584;2023-03-01T07:23:33;2.80;99.90
22974;DHT22;11653;50.848;4.584;2023-03-01T07:25:59;3.30;99.90
22974;DHT22;11653;50.848;4.584;2023-03-01T07:28:26;4.00;99.90
22974;DHT22;11653;50.848;4.584;2023-03-01T07:30:52;4.60;99.90
22974;DHT22;11653;50.848;4.584;2023-03-01T07:33:18;5.30;99.90
22974;DHT22;11653;50.848;4.584;2023-03-01T07:35:44;6.10;99.90
22974;DHT22;11653;50.848;4.584;2023-03-01T07:38:09;6.80;99.90
22974;DHT22;11653;50.848;4.584;2023-03-01T07:40:35;7.50;99.90
22974;DHT22;11653;50.848;4.584;2023-03-01T07:43:01;8.10;97.90
22974;DHT22;11653;50.848;4.584;2023-03-01T07:45:27;8.60;95.90
22974;DHT22;11653;50.848;4.584;2023-03-01T07:47:54;8.80;94.40
22974;DHT22;11653;50.848;4.584;2023-03-01T07:50:20;8.90;92.90
22974;DHT22;11653;50.848;4.584;2023-03-01T07:52:47;9.20;92.40
22974;DHT22;11653;50.848;4.584;2023-03-01T07:55:13;9.60;91.80
22974;DHT22;11653;50.848;4.584;2023-03-01T07:57:39;9.80;90.00
22974;DHT22;11653;50.848;4.584;2023-03-01T08:00:07;9.70;89.80
22974;DHT22;11653;50.848;4.584;2023-03-01T08:02:33;9.50;88.50
22974;DHT22;11653;50.848;4.584;2023-03-01T08:04:59;8.90;90.50
22974;DHT22;11653;50.848;4.584;2023-03-01T08:07:24;8.80;90.80
22974;DHT22;11653;50.848;4.584;2023-03-01T08:09:50;9.10;91.00
22974;DHT22;11653;50.848;4.584;2023-03-01T08:12:15;9.30;90.20
22974;DHT22;11653;50.848;4.584;2023-03-01T08:14:44;9.50;88.70
22974;DHT22;11653;50.848;4.584;2023-03-01T08:17:10;9.60;87.70
22974;DHT22;11653;50.848;4.584;2023-03-01T08:19:35;9.60;88.10
22974;DHT22;11653;50.848;4.584;2023-03-01T08:22:02;9.70;87.80
22974;DHT22;11653;50.848;4.584;2023-03-01T08:24:28;9.70;87.70
22974;DHT22;11653;50.848;4.584;2023-03-01T08:26:54;9.70;87.10
22974;DHT22;11653;50.848;4.584;2023-03-01T08:29:20;9.60;87.50
22974;DHT22;11653;50.848;4.584;2023-03-01T08:31:47;9.70;86.40
22974;DHT22;11653;50.848;4.584;2023-03-01T08:34:15;9.60;87.00
22974;DHT22;11653;50.848;4.584;2023-03-01T08:36:43;9.00;88.40
22974;DHT22;11653;50.848;4.584;2023-03-01T08:39:10;9.50;88.10
22974;DHT22;11653;50.848;4.584;2023-03-01T08:41:37;9.30;86.80
22974;DHT22;11653;50.848;4.584;2023-03-01T08:44:03;8.60;87.80
22974;DHT22;11653;50.848;4.584;2023-03-01T08:46:32;8.30;90.30
22974;DHT22;11653;50.848;4.584;2023-03-01T08:48:58;8.40;90.30
22974;DHT22;11653;50.848;4.584;2023-03-01T08:51:24;9.00;90.00
22974;DHT22;11653;50.848;4.584;2023-03-01T08:53:50;9.40;87.70
22974;DHT22;11653;50.848;4.584;2023-03-01T08:56:16;9.70;87.30
22974;DHT22;11653;50.848;4.584;2023-03-01T08:58:44;9.40;85.70
22974;DHT22;11653;50.848;4.584;2023-03-01T09:01:12;9.30;86.70
22974;DHT22;11653;50.848;4.584;2023-03-01T09:03:38;8.90;87.60
22974;DHT22;11653;50.848;4.584;2023-03-01T09:06:06;8.90;87.50
22974;DHT22;11653;50.848;4.584;2023-03-01T09:08:35;9.30;88.50
22974;DHT22;11653;50.848;4.584;2023-03-01T09:11:05;10.00;87.00
22974;DHT22;11653;50.848;4.584;2023-03-01T09:13:31;10.70;85.20
22974;DHT22;11653;50.848;4.584;2023-03-01T09:15:58;11.60;80.90
22974;DHT22;11653;50.848;4.584;2023-03-01T09:18:24;11.40;78.80
22974;DHT22;11653;50.848;4.584;2023-03-01T09:20:49;11.20;79.40
22974;DHT22;11653;50.848;4.584;2023-03-01T09:23:15;10.90;81.00
22974;DHT22;11653;50.848;4.584;2023-03-01T09:25:41;10.40;81.90
22974;DHT22;11653;50.848;4.584;2023-03-01T09:28:06;10.70;81.10
22974;DHT22;11653;50.848;4.584;2023-03-01T09:30:32;10.80;82.20
22974;DHT22;11653;50.848;4.584;2023-03-01T09:32:58;11.10;80.00
22974;DHT22;11653;50.848;4.584;2023-03-01T09:35:23;11.50;79.70
22974;DHT22;11653;50.848;4.584;2023-03-01T09:37:49;11.80;77.90
22974;DHT22;11653;50.848;4.584;2023-03-01T09:40:23;12.20;76.10
22974;DHT22;11653;50.848;4.584;2023-03-01T09:43:06;13.00;75.30
22974;DHT22;11653;50.848;4.584;2023-03-01T09:45:40;13.40;72.30
22974;DHT22;11653;50.848;4.584;2023-03-01T09:48:21;13.60;70.90
22974;DHT22;11653;50.848;4.584;2023-03-01T09:50:49;14.00;70.30
22974;DHT22;11653;50.848;4.584;2023-03-01T09:53:20;13.60;69.50
22974;DHT22;11653;50.848;4.584;2023-03-01T09:56:00;12.60;71.50
22974;DHT22;11653;50.848;4.584;2023-03-01T10:01:45;11.90;73.40
22974;DHT22;11653;50.848;4.584;2023-03-01T10:09:53;10.70;77.30
22974;DHT22;11653;50.848;4.584;2023-03-01T10:12:26;10.50;77.00
22974;DHT22;11653;50.848;4.584;2023-03-01T10:17:30;10.70;76.60
22974;DHT22;11653;50.848;4.584;2023-03-01T10:20:18;10.80;76.40
22974;DHT22;11653;50.848;4.584;2023-03-01T10:22:44;10.70;75.10
22974;DHT22;11653;50.848;4.584;2023-03-01T10:30:47;11.80;74.80
22974;DHT22;11653;50.848;4.584;2023-03-01T10:33:20;12.30;72.60
22974;DHT22;11653;50.848;4.584;2023-03-01T10:35:47;12.50;71.90
22974;DHT22;11653;50.848;4.584;2023-03-01T10:38:15;12.40;70.80
22974;DHT22;11653;50.848;4.584;2023-03-01T10:40:55;12.50;70.50
22974;DHT22;11653;50.848;4.584;2023-03-01T10:43:26;12.10;72.00
22974;DHT22;11653;50.848;4.584;2023-03-01T10:45:53;12.30;71.80
22974;DHT22;11653;50.848;4.584;2023-03-01T10:48:22;12.90;70.70
22974;DHT22;11653;50.848;4.584;2023-03-01T10:53:27;12.60;69.60
22974;DHT22;11653;50.848;4.584;2023-03-01T10:56:08;12.20;70.70
22974;DHT22;11653;50.848;4.584;2023-03-01T10:58:36;12.30;70.40
22974;DHT22;11653;50.848;4.584;2023-03-01T11:01:06;12.30;71.10
22974;DHT22;11653;50.848;4.584;2023-03-01T11:03:37;12.60;69.30
22974;DHT22;11653;50.848;4.584;2023-03-01T11:11:29;13.00;67.60
22974;DHT22;11653;50.848;4.584;2023-03-01T11:14:13;12.80;66.50
22974;DHT22;11653;50.848;4.584;2023-03-01T11:16:42;12.90;67.60
22974;DHT22;11653;50.848;4.584;2023-03-01T11:21:39;13.90;63.40
22974;DHT22;11653;50.848;4.584;2023-03-01T11:24:11;13.90;64.00
22974;DHT22;11653;50.848;4.584;2023-03-01T11:26:41;14.10;62.50
22974;DHT22;11653;50.848;4.584;2023-03-01T11:29:37;14.10;62.40
22974;DHT22;11653;50.848;4.584;2023-03-01T11:32:06;13.40;61.60
22974;DHT22;11653;50.848;4.584;2023-03-01T11:34:53;12.30;66.80
22974;DHT22;11653;50.848;4.584;2023-03-01T11:37:40;11.40;66.30
22974;DHT22;11653;50.848;4.584;2023-03-01T11:43:26;12.70;66.30
22974;DHT22;11653;50.848;4.584;2023-03-01T11:51:44;12.40;68.30
22974;DHT22;11653;50.848;4.584;2023-03-01T12:08:19;12.30;65.50
22974;DHT22;11653;50.848;4.584;2023-03-01T12:11:01;12.50;65.70
22974;DHT22;11653;50.848;4.584;2023-03-01T12:21:53;12.20;66.30
22974;DHT22;11653;50.848;4.584;2023-03-01T12:24:51;12.80;65.10
22974;DHT22;11653;50.848;4.584;2023-03-01T12:38:39;16.20;58.50
22974;DHT22;11653;50.848;4.584;2023-03-01T12:44:22;16.20;56.00
22974;DHT22;11653;50.848;4.584;2023-03-01T12:49:46;16.00;54.50
22974;DHT22;11653;50.848;4.584;2023-03-01T12:52:27;15.60;55.40
22974;DHT22;11653;50.848;4.584;2023-03-01T12:54:56;16.00;55.40
22974;DHT22;11653;50.848;4.584;2023-03-01T12:57:31;16.50;54.20
22974;DHT22;11653;50.848;4.584;2023-03-01T13:00:27;16.20;54.60
22974;DHT22;11653;50.848;4.584;2023-03-01T13:06:08;15.20;55.90
22974;DHT22;11653;50.848;4.584;2023-03-01T13:11:32;15.20;55.80
22974;DHT22;11653;50.848;4.584;2023-03-01T13:16:45;14.60;55.80
22974;DHT22;11653;50.848;4.584;2023-03-01T13:19:27;13.90;57.00
22974;DHT22;11653;50.848;4.584;2023-03-01T13:21:57;13.80;57.30
22974;DHT22;11653;50.848;4.584;2023-03-01T13:24:25;13.60;58.00
22974;DHT22;11653;50.848;4.584;2023-03-01T13:34:56;11.20;62.70
22974;DHT22;11653;50.848;4.584;2023-03-01T13:37:25;10.70;64.60
22974;DHT22;11653;50.848;4.584;2023-03-01T13:39:52;10.10;66.10
22974;DHT22;11653;50.848;4.584;2023-03-01T13:42:40;9.60;67.50
22974;DHT22;11653;50.848;4.584;2023-03-01T13:45:20;9.30;69.10
22974;DHT22;11653;50.848;4.584;2023-03-01T13:47:48;9.10;70.20
22974;DHT22;11653;50.848;4.584;2023-03-01T13:50:21;9.30;69.90
22974;DHT22;11653;50.848;4.584;2023-03-01T13:52:58;9.50;70.60
22974;DHT22;11653;50.848;4.584;2023-03-01T13:55:31;9.60;70.80
22974;DHT22;11653;50.848;4.584;2023-03-01T13:58:05;9.50;69.90
22974;DHT22;11653;50.848;4.584;2023-03-01T14:00:39;9.60;70.40
22974;DHT22;11653;50.848;4.584;2023-03-01T14:03:13;9.60;72.20
22974;DHT22;11653;50.848;4.584;2023-03-01T14:05:41;9.50;72.60
22974;DHT22;11653;50.848;4.584;2023-03-01T14:08:22;9.40;72.30
22974;DHT22;11653;50.848;4.584;2023-03-01T14:10:57;9.20;73.00
22974;DHT22;11653;50.848;4.584;2023-03-01T14:13:33;9.00;73.10
22974;DHT22;11653;50.848;4.584;2023-03-01T14:21:18;8.70;74.90
22974;DHT22;11653;50.848;4.584;2023-03-01T14:23:44;9.00;75.40
22974;DHT22;11653;50.848;4.584;2023-03-01T14:26:10;9.20;74.50
22974;DHT22;11653;50.848;4.584;2023-03-01T14:28:38;9.30;74.70
22974;DHT22;11653;50.848;4.584;2023-03-01T14:31:31;9.20;74.40
22974;DHT22;11653;50.848;4.584;2023-03-01T14:33:58;8.80;73.80
22974;DHT22;11653;50.848;4.584;2023-03-01T14:36:29;8.70;73.60
22974;DHT22;11653;50.848;4.584;2023-03-01T14:38:55;8.70;76.30
22974;DHT22;11653;50.848;4.584;2023-03-01T14:41:24;8.70;75.80
22974;DHT22;11653;50.848;4.584;2023-03-01T14:46:23;8.70;75.60
22974;DHT22;11653;50.848;4.584;2023-03-01T14:48:56;8.60;76.00
22974;DHT22;11653;50.848;4.584;2023-03-01T14:51:23;8.70;77.00
22974;DHT22;11653;50.848;4.584;2023-03-01T14:53:50;9.00;74.60
22974;DHT22;11653;50.848;4.584;2023-03-01T14:56:17;9.20;74.00
22974;DHT22;11653;50.848;4.584;2023-03-01T14:58:44;9.00;75.00
22974;DHT22;11653;50.848;4.584;2023-03-01T15:01:15;8.60;74.90
22974;DHT22;11653;50.848;4.584;2023-03-01T15:03:47;8.60;75.70
22974;DHT22;11653;50.848;4.584;2023-03-01T15:06:22;8.50;76.80
22974;DHT22;11653;50.848;4.584;2023-03-01T15:08:50;8.50;75.70
22974;DHT22;11653;50.848;4.584;2023-03-01T15:11:27;8.70;75.10
22974;DHT22;11653;50.848;4.584;2023-03-01T15:13:54;8.40;74.40
22974;DHT22;11653;50.848;4.584;2023-03-01T15:16:24;8.50;75.20
22974;DHT22;11653;50.848;4.584;2023-03-01T15:18:59;8.60;75.20
22974;DHT22;11653;50.848;4.584;2023-03-01T15:21:37;8.50;75.30
22974;DHT22;11653;50.848;4.584;2023-03-01T15:26:49;9.00;74.80
22974;DHT22;11653;50.848;4.584;2023-03-01T15:29:24;9.20;74.40
22974;DHT22;11653;50.848;4.584;2023-03-01T15:32:06;9.00;73.20
22974;DHT22;11653;50.848;4.584;2023-03-01T15:34:48;8.80;74.00
22974;DHT22;11653;50.848;4.584;2023-03-01T15:37:45;8.70;74.30
22974;DHT22;11653;50.848;4.584;2023-03-01T15:43:01;7.90;75.20
22974;DHT22;11653;50.848;4.584;2023-03-01T15:45:29;7.70;76.40
22974;DHT22;11653;50.848;4.584;2023-03-01T15:48:01;7.70;77.90
22974;DHT22;11653;50.848;4.584;2023-03-01T15:50:34;8.00;78.10
22974;DHT22;11653;50.848;4.584;2023-03-01T15:53:05;8.20;77.70
22974;DHT22;11653;50.848;4.584;2023-03-01T15:55:32;8.20;77.10
22974;DHT22;11653;50.848;4.584;2023-03-01T15:58:15;8.20;76.90
22974;DHT22;11653;50.848;4.584;2023-03-01T16:00:41;8.20;76.50
22974;DHT22;11653;50.848;4.584;2023-03-01T16:03:12;8.20;76.60
22974;DHT22;11653;50.848;4.584;2023-03-01T16:05:38;8.20;76.20
22974;DHT22;11653;50.848;4.584;2023-03-01T16:08:06;7.90;77.60
22974;DHT22;11653;50.848;4.584;2023-03-01T16:10:33;8.00;78.00
22974;DHT22;11653;50.848;4.584;2023-03-01T16:12:59;7.90;77.50
22974;DHT22;11653;50.848;4.584;2023-03-01T16:15:31;7.90;77.50
22974;DHT22;11653;50.848;4.584;2023-03-01T16:17:57;7.80;76.90
22974;DHT22;11653;50.848;4.584;2023-03-01T16:20:26;7.80;76.90
22974;DHT22;11653;50.848;4.584;2023-03-01T16:22:53;7.50;77.70
22974;DHT22;11653;50.848;4.584;2023-03-01T16:25:20;7.50;78.80
22974;DHT22;11653;50.848;4.584;2023-03-01T16:27:58;7.50;78.80
22974;DHT22;11653;50.848;4.584;2023-03-01T16:30:29;7.40;78.80
22974;DHT22;11653;50.848;4.584;2023-03-01T16:32:54;7.30;79.20
22974;DHT22;11653;50.848;4.584;2023-03-01T16:35:22;7.50;79.40
22974;DHT22;11653;50.848;4.584;2023-03-01T16:37:49;7.50;79.30
22974;DHT22;11653;50.848;4.584;2023-03-01T16:40:23;7.30;80.00
22974;DHT22;11653;50.848;4.584;2023-03-01T16:42:50;7.40;80.70
22974;DHT22;11653;50.848;4.584;2023-03-01T16:45:16;7.40;80.00
22974;DHT22;11653;50.848;4.584;2023-03-01T16:47:42;7.40;79.70
22974;DHT22;11653;50.848;4.584;2023-03-01T16:50:09;7.40;80.00
22974;DHT22;11653;50.848;4.584;2023-03-01T16:52:35;7.30;80.60
22974;DHT22;11653;50.848;4.584;2023-03-01T16:55:03;7.20;81.30
22974;DHT22;11653;50.848;4.584;2023-03-01T16:57:29;7.10;82.00
22974;DHT22;11653;50.848;4.584;2023-03-01T16:59:55;7.10;82.20
22974;DHT22;11653;50.848;4.584;2023-03-01T17:02:21;7.00;82.50
22974;DHT22;11653;50.848;4.584;2023-03-01T17:04:54;6.90;83.30
22974;DHT22;11653;50.848;4.584;2023-03-01T17:07:20;7.00;82.90
22974;DHT22;11653;50.848;4.584;2023-03-01T17:09:46;7.00;83.30
22974;DHT22;11653;50.848;4.584;2023-03-01T17:12:13;7.00;83.20
22974;DHT22;11653;50.848;4.584;2023-03-01T17:14:39;7.10;83.70
22974;DHT22;11653;50.848;4.584;2023-03-01T17:17:07;7.10;83.50
22974;DHT22;11653;50.848;4.584;2023-03-01T17:19:33;6.90;83.70
22974;DHT22;11653;50.848;4.584;2023-03-01T17:22:01;6.70;84.90
22974;DHT22;11653;50.848;4.584;2023-03-01T17:24:27;6.70;85.70
22974;DHT22;11653;50.848;4.584;2023-03-01T17:26:54;6.50;86.40
22974;DHT22;11653;50.848;4.584;2023-03-01T17:29:20;6.60;86.40
22974;DHT22;11653;50.848;4.584;2023-03-01T17:31:46;6.50;87.20
22974;DHT22;11653;50.848;4.584;2023-03-01T17:34:11;6.40;87.90
22974;DHT22;11653;50.848;4.584;2023-03-01T17:36:37;6.30;88.40
22974;DHT22;11653;50.848;4.584;2023-03-01T17:39:15;6.30;88.80
22974;DHT22;11653;50.848;4.584;2023-03-01T17:41:41;6.10;89.50
22974;DHT22;11653;50.848;4.584;2023-03-01T17:44:07;6.00;90.20
22974;DHT22;11653;50.848;4.584;2023-03-01T17:46:33;6.10;90.30